sensor_id;sensor_type;location;lat;lon;timestamp;P1;durP1;ratioP1;P2;durP2;ratioP2
41221;SDS011;26952;42.884;23.918;2023-03-21T00:00:35;25.15;;;23.38;;
41221;SDS011;26952;42.884;23.918;2023-03-21T00:03:01;26.92;;;25.33;;
41221;SDS011;26952;42.884;23.918;2023-03-21T00:05:26;25.17;;;23.48;;
41221;SDS011;26952;42.884;23.918;2023-03-21T00:07:52;23.63;;;22.02;;
41221;SDS011;26952;42.884;23.918;2023-03-21T00:10:17;21.65;;;20.02;;
41221;SDS011;26952;42.884;23.918;2023-03-21T00:12:43;21.52;;;19.88;;
41221;SDS011;26952;42.884;23.918;2023-03-21T00:15:09;21.35;;;19.92;;
41221;SDS011;26952;42.884;23.918;2023-03-21T00:17:36;20.17;;;18.88;;
41221;SDS011;26952;42.884;23.918;2023-03-21T00:20:04;20.45;;;18.95;;
41221;SDS011;26952;42.884;23.918;2023-03-21T00:22:32;20.67;;;19.05;;
41221;SDS011;26952;42.884;23.918;2023-03-21T00:24:59;20.25;;;18.55;;
41221;SDS011;26952;42.884;23.918;2023-03-21T00:27:25;21.58;;;20.00;;
41221;SDS011;26952;42.884;23.918;2023-03-21T00:29:51;20.08;;;18.63;;
41221;SDS011;26952;42.884;23.918;2023-03-21T00:32:17;21.30;;;19.73;;
41221;SDS011;26952;42.884;23.918;2023-03-21T00:34:44;22.90;;;21.30;;
41221;SDS011;26952;42.884;23.918;2023-03-21T00:37:10;20.30;;;19.00;;
41221;SDS011;26952;42.884;23.918;2023-03-21T00:39:41;20.10;;;18.77;;
41221;SDS011;26952;42.884;23.918;2023-03-21T00:42:08;17.10;;;15.90;;
41221;SDS011;26952;42.884;23.918;2023-03-21T00:44:34;16.45;;;15.27;;
41221;SDS011;26952;42.884;23.918;2023-03-21T00:47:01;14.68;;;13.52;;
41221;SDS011;26952;42.884;23.918;2023-03-21T00:49:27;16.20;;;14.90;;
41221;SDS011;26952;42.884;23.918;2023-03-21T00:51:57;14.85;;;13.73;;
41221;SDS011;26952;42.884;23.918;2023-03-21T00:54:26;14.25;;;13.00;;
41221;SDS011;26952;42.884;23.918;2023-03-21T00:56:52;12.43;;;10.60;;
41221;SDS011;26952;42.884;23.918;2023-03-21T00:59:18;12.80;;;11.60;;
41221;SDS011;26952;42.884;23.918;2023-03-21T01:01:43;11.80;;;10.82;;
41221;SDS011;26952;42.884;23.918;2023-03-21T01:04:10;11.38;;;10.23;;
41221;SDS011;26952;42.884;23.918;2023-03-21T01:06:38;10.10;;;9.18;;
41221;SDS011;26952;42.884;23.918;2023-03-21T01:09:06;11.25;;;10.35;;
41221;SDS011;26952;42.884;23.918;2023-03-21T01:11:36;12.32;;;11.13;;
41221;SDS011;26952;42.884;23.918;2023-03-21T01:14:02;11.07;;;10.07;;
41221;SDS011;26952;42.884;23.918;2023-03-21T01:16:27;10.77;;;9.60;;
41221;SDS011;26952;42.884;23.918;2023-03-21T01:18:53;10.85;;;9.85;;
41221;SDS011;26952;42.884;23.918;2023-03-21T01:21:18;10.07;;;9.27;;
41221;SDS011;26952;42.884;23.918;2023-03-21T01:23:44;10.65;;;9.82;;
41221;SDS011;26952;42.884;23.918;2023-03-21T01:26:10;10.73;;;9.93;;
41221;SDS011;26952;42.884;23.918;2023-03-21T01:28:37;12.35;;;11.35;;
41221;SDS011;26952;42.884;23.918;2023-03-21T01:31:05;11.80;;;10.80;;
41221;SDS011;26952;42.884;23.918;2023-03-21T01:33:31;13.05;;;11.25;;
41221;SDS011;26952;42.884;23.918;2023-03-21T01:35:57;13.63;;;12.63;;
41221;SDS011;26952;42.884;23.918;2023-03-21T01:38:24;13.43;;;12.27;;
41221;SDS011;26952;42.884;23.918;2023-03-21T01:40:49;15.13;;;11.32;;
41221;SDS011;26952;42.884;23.918;2023-03-21T01:43:20;13.32;;;12.02;;
41221;SDS011;26952;42.884;23.918;2023-03-21T01:48:45;13.40;;;12.40;;
41221;SDS011;26952;42.884;23.918;2023-03-21T01:51:14;14.85;;;13.60;;
41221;SDS011;26952;42.884;23.918;2023-03-21T01:53:40;17.20;;;16.15;;
41221;SDS011;26952;42.884;23.918;2023-03-21T01:56:08;20.15;;;18.95;;
41221;SDS011;26952;42.884;23.918;2023-03-21T01:58:37;15.77;;;14.50;;
41221;SDS011;26952;42.884;23.918;2023-03-21T02:01:06;15.85;;;14.57;;
41221;SDS011;26952;42.884;23.918;2023-03-21T02:03:32;15.50;;;14.45;;
41221;SDS011;26952;42.884;23.918;2023-03-21T02:06:06;20.67;;;17.75;;
41221;SDS011;26952;42.884;23.918;2023-03-21T02:08:35;21.10;;;19.77;;
41221;SDS011;26952;42.884;23.918;2023-03-21T02:11:01;20.60;;;19.17;;
41221;SDS011;26952;42.884;23.918;2023-03-21T02:13:28;22.60;;;20.90;;
41221;SDS011;26952;42.884;23.918;2023-03-21T02:15:57;24.42;;;22.88;;
41221;SDS011;26952;42.884;23.918;2023-03-21T02:26:51;22.45;;;20.65;;
41221;SDS011;26952;42.884;23.918;2023-03-21T02:29:32;14.95;;;13.85;;
41221;SDS011;26952;42.884;23.918;2023-03-21T02:32:11;13.20;;;11.85;;
41221;SDS011;26952;42.884;23.918;2023-03-21T02:40:01;13.65;;;12.38;;
41221;SDS011;26952;42.884;23.918;2023-03-21T02:45:30;11.48;;;10.57;;
41221;SDS011;26952;42.884;23.918;2023-03-21T02:48:13;9.60;;;8.63;;
41221;SDS011;26952;42.884;23.918;2023-03-21T02:50:50;9.98;;;8.95;;
41221;SDS011;26952;42.884;23.918;2023-03-21T02:53:20;10.43;;;9.43;;
41221;SDS011;26952;42.884;23.918;2023-03-21T02:55:49;11.30;;;10.20;;
41221;SDS011;26952;42.884;23.918;2023-03-21T02:58:18;10.90;;;10.10;;
41221;SDS011;26952;42.884;23.918;2023-03-21T03:00:46;10.60;;;9.70;;
41221;SDS011;26952;42.884;23.918;2023-03-21T03:03:13;10.55;;;9.55;;
41221;SDS011;26952;42.884;23.918;2023-03-21T03:05:49;9.85;;;8.95;;
41221;SDS011;26952;42.884;23.918;2023-03-21T03:08:29;10.20;;;8.43;;
41221;SDS011;26952;42.884;23.918;2023-03-21T03:19:59;9.15;;;7.10;;
41221;SDS011;26952;42.884;23.918;2023-03-21T03:22:36;9.52;;;7.70;;
41221;SDS011;26952;42.884;23.918;2023-03-21T03:25:13;8.75;;;7.93;;
41221;SDS011;26952;42.884;23.918;2023-03-21T03:27:44;8.40;;;7.63;;
41221;SDS011;26952;42.884;23.918;2023-03-21T03:30:14;8.57;;;7.78;;
41221;SDS011;26952;42.884;23.918;2023-03-21T03:32:43;8.98;;;7.82;;
41221;SDS011;26952;42.884;23.918;2023-03-21T03:35:13;8.80;;;7.85;;
41221;SDS011;26952;42.884;23.918;2023-03-21T03:37:41;8.82;;;7.93;;
41221;SDS011;26952;42.884;23.918;2023-03-21T03:40:14;9.27;;;8.38;;
41221;SDS011;26952;42.884;23.918;2023-03-21T03:45:14;9.15;;;8.35;;
41221;SDS011;26952;42.884;23.918;2023-03-21T03:47:54;9.43;;;8.38;;
41221;SDS011;26952;42.884;23.918;2023-03-21T03:50:47;7.50;;;6.40;;
41221;SDS011;26952;42.884;23.918;2023-03-21T03:55:42;9.63;;;8.10;;
41221;SDS011;26952;42.884;23.918;2023-03-21T03:58:09;8.90;;;8.00;;
41221;SDS011;26952;42.884;23.918;2023-03-21T04:00:36;9.25;;;8.35;;
41221;SDS011;26952;42.884;23.918;2023-03-21T04:03:02;9.63;;;8.73;;
41221;SDS011;26952;42.884;23.918;2023-03-21T04:05:31;11.55;;;10.40;;
41221;SDS011;26952;42.884;23.918;2023-03-21T04:07:57;14.18;;;13.02;;
41221;SDS011;26952;42.884;23.918;2023-03-21T04:10:22;13.70;;;12.43;;
41221;SDS011;26952;42.884;23.918;2023-03-21T04:12:48;13.32;;;12.23;;
41221;SDS011;26952;42.884;23.918;2023-03-21T04:15:14;12.82;;;11.63;;
41221;SDS011;26952;42.884;23.918;2023-03-21T04:17:40;12.75;;;11.65;;
41221;SDS011;26952;42.884;23.918;2023-03-21T04:20:05;12.65;;;11.55;;
41221;SDS011;26952;42.884;23.918;2023-03-21T04:22:34;14.63;;;13.32;;
41221;SDS011;26952;42.884;23.918;2023-03-21T04:24:59;14.90;;;13.60;;
41221;SDS011;26952;42.884;23.918;2023-03-21T04:27:25;16.45;;;14.93;;
41221;SDS011;26952;42.884;23.918;2023-03-21T04:29:51;16.85;;;15.38;;
41221;SDS011;26952;42.884;23.918;2023-03-21T04:32:17;18.70;;;17.20;;
41221;SDS011;26952;42.884;23.918;2023-03-21T04:34:44;21.38;;;19.75;;
41221;SDS011;26952;42.884;23.918;2023-03-21T04:37:19;19.02;;;17.55;;
41221;SDS011;26952;42.884;23.918;2023-03-21T04:39:48;17.30;;;16.05;;
41221;SDS011;26952;42.884;23.918;2023-03-21T04:42:14;17.65;;;15.85;;
41221;SDS011;26952;42.884;23.918;2023-03-21T04:44:42;18.30;;;16.83;;
41221;SDS011;26952;42.884;23.918;2023-03-21T04:47:08;17.40;;;15.93;;
41221;SDS011;26952;42.884;23.918;2023-03-21T04:49:35;20.08;;;18.73;;
41221;SDS011;26952;42.884;23.918;2023-03-21T04:52:01;20.58;;;18.85;;
41221;SDS011;26952;42.884;23.918;2023-03-21T04:54:27;20.95;;;19.50;;
41221;SDS011;26952;42.884;23.918;2023-03-21T04:56:52;20.35;;;18.95;;
41221;SDS011;26952;42.884;23.918;2023-03-21T04:59:18;19.17;;;17.65;;
41221;SDS011;26952;42.884;23.918;2023-03-21T05:01:44;19.95;;;18.55;;
41221;SDS011;26952;42.884;23.918;2023-03-21T05:04:10;18.15;;;16.55;;
41221;SDS011;26952;42.884;23.918;2023-03-21T05:06:37;16.10;;;14.73;;
41221;SDS011;26952;42.884;23.918;2023-03-21T05:09:03;17.15;;;15.75;;
41221;SDS011;26952;42.884;23.918;2023-03-21T05:11:31;14.18;;;12.77;;
41221;SDS011;26952;42.884;23.918;2023-03-21T05:13:57;12.68;;;11.57;;
41221;SDS011;26952;42.884;23.918;2023-03-21T05:16:23;13.38;;;11.93;;
41221;SDS011;26952;42.884;23.918;2023-03-21T05:18:53;13.43;;;12.27;;
41221;SDS011;26952;42.884;23.918;2023-03-21T05:21:20;14.35;;;13.05;;
41221;SDS011;26952;42.884;23.918;2023-03-21T05:23:46;10.85;;;9.85;;
41221;SDS011;26952;42.884;23.918;2023-03-21T05:26:18;13.55;;;12.45;;
41221;SDS011;26952;42.884;23.918;2023-03-21T05:28:45;11.00;;;9.90;;
41221;SDS011;26952;42.884;23.918;2023-03-21T05:31:12;10.88;;;9.88;;
41221;SDS011;26952;42.884;23.918;2023-03-21T05:33:40;16.58;;;11.85;;
41221;SDS011;26952;42.884;23.918;2023-03-21T05:36:07;14.43;;;13.13;;
41221;SDS011;26952;42.884;23.918;2023-03-21T05:38:33;16.92;;;15.43;;
41221;SDS011;26952;42.884;23.918;2023-03-21T05:40:58;16.75;;;15.35;;
41221;SDS011;26952;42.884;23.918;2023-03-21T05:43:23;17.58;;;16.13;;
41221;SDS011;26952;42.884;23.918;2023-03-21T05:45:49;21.02;;;19.52;;
41221;SDS011;26952;42.884;23.918;2023-03-21T05:48:14;22.30;;;20.58;;
41221;SDS011;26952;42.884;23.918;2023-03-21T05:50:40;25.23;;;23.17;;
41221;SDS011;26952;42.884;23.918;2023-03-21T05:53:05;25.48;;;23.77;;
41221;SDS011;26952;42.884;23.918;2023-03-21T05:55:31;26.15;;;24.27;;
41221;SDS011;26952;42.884;23.918;2023-03-21T05:57:56;26.30;;;24.30;;
41221;SDS011;26952;42.884;23.918;2023-03-21T06:00:22;23.67;;;21.92;;
41221;SDS011;26952;42.884;23.918;2023-03-21T06:02:47;22.02;;;20.52;;
41221;SDS011;26952;42.884;23.918;2023-03-21T06:05:13;23.30;;;21.70;;
41221;SDS011;26952;42.884;23.918;2023-03-21T06:07:38;25.88;;;24.15;;
41221;SDS011;26952;42.884;23.918;2023-03-21T06:10:04;26.27;;;24.42;;
41221;SDS011;26952;42.884;23.918;2023-03-21T06:12:30;28.33;;;26.33;;
41221;SDS011;26952;42.884;23.918;2023-03-21T06:14:56;28.80;;;27.00;;
41221;SDS011;26952;42.884;23.918;2023-03-21T06:17:21;30.23;;;28.30;;
41221;SDS011;26952;42.884;23.918;2023-03-21T06:19:46;29.90;;;27.98;;
41221;SDS011;26952;42.884;23.918;2023-03-21T06:22:12;27.15;;;25.27;;
41221;SDS011;26952;42.884;23.918;2023-03-21T06:24:37;23.25;;;21.55;;
41221;SDS011;26952;42.884;23.918;2023-03-21T06:27:03;20.85;;;19.15;;
41221;SDS011;26952;42.884;23.918;2023-03-21T06:29:28;24.77;;;23.00;;
41221;SDS011;26952;42.884;23.918;2023-03-21T06:31:53;23.25;;;21.65;;
41221;SDS011;26952;42.884;23.918;2023-03-21T06:34:19;20.83;;;19.42;;
41221;SDS011;26952;42.884;23.918;2023-03-21T06:36:44;27.45;;;25.75;;
41221;SDS011;26952;42.884;23.918;2023-03-21T06:39:10;26.77;;;25.05;;
41221;SDS011;26952;42.884;23.918;2023-03-21T06:41:36;25.67;;;23.98;;
41221;SDS011;26952;42.884;23.918;2023-03-21T06:44:01;19.33;;;17.95;;
41221;SDS011;26952;42.884;23.918;2023-03-21T06:46:27;19.65;;;18.35;;
41221;SDS011;26952;42.884;23.918;2023-03-21T06:48:53;21.88;;;20.17;;
41221;SDS011;26952;42.884;23.918;2023-03-21T06:51:18;20.55;;;19.15;;
41221;SDS011;26952;42.884;23.918;2023-03-21T06:53:44;28.50;;;26.70;;
41221;SDS011;26952;42.884;23.918;2023-03-21T06:56:09;41.10;;;38.67;;
41221;SDS011;26952;42.884;23.918;2023-03-21T06:58:36;41.83;;;39.33;;
41221;SDS011;26952;42.884;23.918;2023-03-21T07:01:02;40.75;;;38.30;;
41221;SDS011;26952;42.884;23.918;2023-03-21T07:03:29;41.95;;;39.35;;
41221;SDS011;26952;42.884;23.918;2023-03-21T07:05:55;36.28;;;33.75;;
41221;SDS011;26952;42.884;23.918;2023-03-21T07:08:22;32.88;;;30.38;;
41221;SDS011;26952;42.884;23.918;2023-03-21T07:10:47;27.88;;;26.00;;
41221;SDS011;26952;42.884;23.918;2023-03-21T07:13:13;23.23;;;21.65;;
41221;SDS011;26952;42.884;23.918;2023-03-21T07:15:38;21.27;;;19.48;;
41221;SDS011;26952;42.884;23.918;2023-03-21T07:18:05;19.17;;;17.83;;
41221;SDS011;26952;42.884;23.918;2023-03-21T07:20:32;27.67;;;25.90;;
41221;SDS011;26952;42.884;23.918;2023-03-21T07:22:58;33.53;;;31.48;;
41221;SDS011;26952;42.884;23.918;2023-03-21T07:25:24;33.63;;;31.55;;
41221;SDS011;26952;42.884;23.918;2023-03-21T07:27:50;40.80;;;38.58;;
41221;SDS011;26952;42.884;23.918;2023-03-21T07:30:16;52.53;;;49.50;;
41221;SDS011;26952;42.884;23.918;2023-03-21T07:32:41;48.38;;;45.58;;
41221;SDS011;26952;42.884;23.918;2023-03-21T07:35:10;44.03;;;41.45;;
41221;SDS011;26952;42.884;23.918;2023-03-21T07:37:38;56.28;;;51.58;;
41221;SDS011;26952;42.884;23.918;2023-03-21T07:40:05;42.00;;;38.70;;
41221;SDS011;26952;42.884;23.918;2023-03-21T07:42:34;35.42;;;32.35;;
41221;SDS011;26952;42.884;23.918;2023-03-21T07:45:09;25.52;;;23.33;;
41221;SDS011;26952;42.884;23.918;2023-03-21T07:47:35;23.95;;;21.98;;
41221;SDS011;26952;42.884;23.918;2023-03-21T07:50:01;22.75;;;21.17;;
41221;SDS011;26952;42.884;23.918;2023-03-21T07:52:28;23.00;;;21.15;;
41221;SDS011;26952;42.884;23.918;2023-03-21T07:54:54;20.10;;;18.45;;
41221;SDS011;26952;42.884;23.918;2023-03-21T07:57:19;22.80;;;20.92;;
41221;SDS011;26952;42.884;23.918;2023-03-21T07:59:45;19.50;;;17.80;;
41221;SDS011;26952;42.884;23.918;2023-03-21T08:02:14;23.70;;;21.65;;
41221;SDS011;26952;42.884;23.918;2023-03-21T08:07:06;19.55;;;17.90;;
41221;SDS011;26952;42.884;23.918;2023-03-21T08:09:31;19.13;;;17.75;;
41221;SDS011;26952;42.884;23.918;2023-03-21T08:11:57;18.40;;;16.67;;
41221;SDS011;26952;42.884;23.918;2023-03-21T08:14:22;19.85;;;18.27;;
41221;SDS011;26952;42.884;23.918;2023-03-21T08:16:48;20.73;;;19.23;;
41221;SDS011;26952;42.884;23.918;2023-03-21T08:19:13;20.27;;;18.98;;
41221;SDS011;26952;42.884;23.918;2023-03-21T08:21:38;26.05;;;24.15;;
41221;SDS011;26952;42.884;23.918;2023-03-21T08:24:04;26.33;;;24.30;;
41221;SDS011;26952;42.884;23.918;2023-03-21T08:26:31;31.35;;;29.30;;
41221;SDS011;26952;42.884;23.918;2023-03-21T08:28:57;27.95;;;26.15;;
41221;SDS011;26952;42.884;23.918;2023-03-21T08:31:22;24.50;;;22.95;;
41221;SDS011;26952;42.884;23.918;2023-03-21T08:33:48;23.92;;;22.27;;
41221;SDS011;26952;42.884;23.918;2023-03-21T08:36:18;26.98;;;25.27;;
41221;SDS011;26952;42.884;23.918;2023-03-21T08:38:43;25.25;;;23.50;;
41221;SDS011;26952;42.884;23.918;2023-03-21T08:41:12;26.35;;;24.33;;
41221;SDS011;26952;42.884;23.918;2023-03-21T08:43:37;25.73;;;24.02;;
41221;SDS011;26952;42.884;23.918;2023-03-21T08:46:03;28.05;;;26.42;;
41221;SDS011;26952;42.884;23.918;2023-03-21T08:48:28;27.83;;;26.13;;
41221;SDS011;26952;42.884;23.918;2023-03-21T08:50:54;32.67;;;30.67;;
41221;SDS011;26952;42.884;23.918;2023-03-21T08:53:19;22.45;;;21.05;;
41221;SDS011;26952;42.884;23.918;2023-03-21T08:55:44;24.17;;;22.58;;
41221;SDS011;26952;42.884;23.918;2023-03-21T08:58:10;18.63;;;17.42;;
41221;SDS011;26952;42.884;23.918;2023-03-21T09:00:35;18.58;;;16.98;;
41221;SDS011;26952;42.884;23.918;2023-03-21T09:03:01;16.67;;;15.27;;
41221;SDS011;26952;42.884;23.918;2023-03-21T09:05:28;13.30;;;12.15;;
41221;SDS011;26952;42.884;23.918;2023-03-21T09:07:54;13.30;;;12.30;;
41221;SDS011;26952;42.884;23.918;2023-03-21T09:10:21;13.45;;;12.50;;
41221;SDS011;26952;42.884;23.918;2023-03-21T09:12:51;14.05;;;12.93;;
41221;SDS011;26952;42.884;23.918;2023-03-21T09:15:18;14.35;;;13.25;;
41221;SDS011;26952;42.884;23.918;2023-03-21T09:17:45;14.32;;;13.07;;
41221;SDS011;26952;42.884;23.918;2023-03-21T09:20:14;13.52;;;12.43;;
41221;SDS011;26952;42.884;23.918;2023-03-21T09:22:48;13.90;;;12.82;;
41221;SDS011;26952;42.884;23.918;2023-03-21T09:25:15;15.05;;;13.95;;
41221;SDS011;26952;42.884;23.918;2023-03-21T09:27:43;14.57;;;13.23;;
41221;SDS011;26952;42.884;23.918;2023-03-21T09:30:10;16.33;;;15.23;;
41221;SDS011;26952;42.884;23.918;2023-03-21T09:32:43;13.90;;;12.88;;
41221;SDS011;26952;42.884;23.918;2023-03-21T09:35:16;13.02;;;11.98;;
41221;SDS011;26952;42.884;23.918;2023-03-21T09:37:43;12.55;;;11.48;;
41221;SDS011;26952;42.884;23.918;2023-03-21T09:49:17;13.55;;;12.55;;
41221;SDS011;26952;42.884;23.918;2023-03-21T09:51:48;12.68;;;11.52;;
41221;SDS011;26952;42.884;23.918;2023-03-21T09:54:22;14.52;;;13.30;;
41221;SDS011;26952;42.884;23.918;2023-03-21T09:56:51;14.23;;;13.27;;
41221;SDS011;26952;42.884;23.918;2023-03-21T09:59:33;11.50;;;10.40;;
41221;SDS011;26952;42.884;23.918;2023-03-21T10:02:18;11.25;;;10.43;;
41221;SDS011;26952;42.884;23.918;2023-03-21T10:05:01;12.45;;;11.38;;
41221;SDS011;26952;42.884;23.918;2023-03-21T10:07:37;12.65;;;11.55;;
41221;SDS011;26952;42.884;23.918;2023-03-21T10:10:06;13.75;;;12.65;;
41221;SDS011;26952;42.884;23.918;2023-03-21T10:12:41;12.63;;;11.65;;
41221;SDS011;26952;42.884;23.918;2023-03-21T10:15:09;12.07;;;11.07;;
41221;SDS011;26952;42.884;23.918;2023-03-21T10:17:42;13.68;;;12.45;;
41221;SDS011;26952;42.884;23.918;2023-03-21T10:20:20;14.27;;;13.00;;
41221;SDS011;26952;42.884;23.918;2023-03-21T10:22:49;13.07;;;12.18;;
41221;SDS011;26952;42.884;23.918;2023-03-21T10:25:21;11.80;;;10.90;;
41221;SDS011;26952;42.884;23.918;2023-03-21T10:27:50;12.63;;;11.73;;
41221;SDS011;26952;42.884;23.918;2023-03-21T10:30:25;13.45;;;12.57;;
41221;SDS011;26952;42.884;23.918;2023-03-21T10:32:56;12.90;;;12.00;;
41221;SDS011;26952;42.884;23.918;2023-03-21T10:35:28;13.65;;;12.55;;
41221;SDS011;26952;42.884;23.918;2023-03-21T10:37:57;12.57;;;11.68;;
41221;SDS011;26952;42.884;23.918;2023-03-21T10:40:25;12.32;;;11.10;;
41221;SDS011;26952;42.884;23.918;2023-03-21T10:42:52;13.68;;;12.40;;
41221;SDS011;26952;42.884;23.918;2023-03-21T10:45:38;12.98;;;12.07;;
41221;SDS011;26952;42.884;23.918;2023-03-21T10:48:05;13.93;;;12.80;;
41221;SDS011;26952;42.884;23.918;2023-03-21T10:50:32;13.05;;;12.05;;
41221;SDS011;26952;42.884;23.918;2023-03-21T10:52:57;15.05;;;13.95;;
41221;SDS011;26952;42.884;23.918;2023-03-21T10:55:33;14.40;;;13.23;;
41221;SDS011;26952;42.884;23.918;2023-03-21T11:00:41;14.82;;;13.57;;
41221;SDS011;26952;42.884;23.918;2023-03-21T11:03:26;14.23;;;13.00;;
41221;SDS011;26952;42.884;23.918;2023-03-21T11:05:55;14.68;;;13.35;;
41221;SDS011;26952;42.884;23.918;2023-03-21T11:08:26;13.35;;;12.25;;
41221;SDS011;26952;42.884;23.918;2023-03-21T11:11:26;12.93;;;11.90;;
41221;SDS011;26952;42.884;23.918;2023-03-21T11:13:46;15.65;;;14.45;;
41221;SDS011;26952;42.884;23.918;2023-03-21T11:16:26;15.43;;;14.32;;
41221;SDS011;26952;42.884;23.918;2023-03-21T11:18:58;15.27;;;14.18;;
41221;SDS011;26952;42.884;23.918;2023-03-21T11:21:25;13.75;;;12.82;;
41221;SDS011;26952;42.884;23.918;2023-03-21T11:23:52;13.57;;;12.48;;
41221;SDS011;26952;42.884;23.918;2023-03-21T11:26:26;12.50;;;11.60;;
41221;SDS011;26952;42.884;23.918;2023-03-21T11:28:56;11.82;;;11.02;;
41221;SDS011;26952;42.884;23.918;2023-03-21T11:31:24;14.43;;;13.25;;
41221;SDS011;26952;42.884;23.918;2023-03-21T11:34:04;13.68;;;12.48;;
41221;SDS011;26952;42.884;23.918;2023-03-21T11:36:32;14.27;;;13.13;;
41221;SDS011;26952;42.884;23.918;2023-03-21T11:42:03;12.55;;;11.57;;
41221;SDS011;26952;42.884;23.918;2023-03-21T11:44:34;14.65;;;13.55;;
41221;SDS011;26952;42.884;23.918;2023-03-21T11:47:08;14.80;;;13.60;;
41221;SDS011;26952;42.884;23.918;2023-03-21T11:49:34;14.27;;;13.27;;
41221;SDS011;26952;42.884;23.918;2023-03-21T12:00:38;11.25;;;10.30;;
41221;SDS011;26952;42.884;23.918;2023-03-21T12:05:52;10.40;;;9.52;;
41221;SDS011;26952;42.884;23.918;2023-03-21T12:11:14;14.13;;;13.02;;
41221;SDS011;26952;42.884;23.918;2023-03-21T12:13:46;12.32;;;11.38;;
41221;SDS011;26952;42.884;23.918;2023-03-21T12:37:40;25.73;;;23.98;;
41221;SDS011;26952;42.884;23.918;2023-03-21T12:46:54;26.08;;;24.50;;
41221;SDS011;26952;42.884;23.918;2023-03-21T12:51:47;12.85;;;11.77;;
41221;SDS011;26952;42.884;23.918;2023-03-21T12:54:19;11.77;;;10.95;;
41221;SDS011;26952;42.884;23.918;2023-03-21T12:56:51;11.55;;;10.75;;
41221;SDS011;26952;42.884;23.918;2023-03-21T13:02:21;9.68;;;8.82;;
41221;SDS011;26952;42.884;23.918;2023-03-21T13:07:22;8.18;;;7.47;;
41221;SDS011;26952;42.884;23.918;2023-03-21T13:09:49;10.50;;;9.45;;
41221;SDS011;26952;42.884;23.918;2023-03-21T13:15:16;9.30;;;8.60;;
41221;SDS011;26952;42.884;23.918;2023-03-21T13:20:53;11.05;;;9.98;;
41221;SDS011;26952;42.884;23.918;2023-03-21T13:23:21;10.95;;;10.10;;
41221;SDS011;26952;42.884;23.918;2023-03-21T13:25:49;10.15;;;9.35;;
41221;SDS011;26952;42.884;23.918;2023-03-21T13:28:24;13.45;;;10.30;;
41221;SDS011;26952;42.884;23.918;2023-03-21T13:30:52;13.32;;;9.32;;
41221;SDS011;26952;42.884;23.918;2023-03-21T13:33:38;10.02;;;9.23;;
41221;SDS011;26952;42.884;23.918;2023-03-21T13:36:11;13.45;;;12.27;;
41221;SDS011;26952;42.884;23.918;2023-03-21T13:41:12;12.60;;;11.40;;
41221;SDS011;26952;42.884;23.918;2023-03-21T13:46:14;12.40;;;11.50;;
41221;SDS011;26952;42.884;23.918;2023-03-21T13:51:42;12.45;;;11.40;;
41221;SDS011;26952;42.884;23.918;2023-03-21T13:59:10;11.70;;;10.70;;
41221;SDS011;26952;42.884;23.918;2023-03-21T14:01:38;11.50;;;10.40;;
41221;SDS011;26952;42.884;23.918;2023-03-21T14:04:10;10.43;;;9.48;;
41221;SDS011;26952;42.884;23.918;2023-03-21T14:09:06;14.68;;;13.48;;
41221;SDS011;26952;42.884;23.918;2023-03-21T14:11:33;16.23;;;14.43;;
41221;SDS011;26952;42.884;23.918;2023-03-21T14:14:00;13.38;;;12.27;;
41221;SDS011;26952;42.884;23.918;2023-03-21T14:16:27;16.45;;;15.15;;
41221;SDS011;26952;42.884;23.918;2023-03-21T14:18:59;20.73;;;19.33;;
41221;SDS011;26952;42.884;23.918;2023-03-21T14:21:28;20.90;;;19.42;;
41221;SDS011;26952;42.884;23.918;2023-03-21T14:28:53;17.48;;;16.25;;
41221;SDS011;26952;42.884;23.918;2023-03-21T14:31:19;17.83;;;16.63;;
41221;SDS011;26952;42.884;23.918;2023-03-21T14:33:51;20.60;;;19.23;;
41221;SDS011;26952;42.884;23.918;2023-03-21T14:36:30;19.45;;;17.65;;
41221;SDS011;26952;42.884;23.918;2023-03-21T14:41:52;17.27;;;16.05;;
41221;SDS011;26952;42.884;23.918;2023-03-21T14:47:29;16.33;;;15.13;;
41221;SDS011;26952;42.884;23.918;2023-03-21T14:49:50;16.38;;;14.98;;
41221;SDS011;26952;42.884;23.918;2023-03-21T14:52:17;16.08;;;14.98;;
41221;SDS011;26952;42.884;23.918;2023-03-21T14:54:47;15.18;;;14.18;;
41221;SDS011;26952;42.884;23.918;2023-03-21T14:57:14;15.88;;;14.27;;
41221;SDS011;26952;42.884;23.918;2023-03-21T14:59:45;15.40;;;13.90;;
41221;SDS011;26952;42.884;23.918;2023-03-21T15:02:16;13.73;;;12.63;;
41221;SDS011;26952;42.884;23.918;2023-03-21T15:04:56;14.32;;;13.15;;
41221;SDS011;26952;42.884;23.918;2023-03-21T15:07:32;15.90;;;14.70;;
41221;SDS011;26952;42.884;23.918;2023-03-21T15:10:03;19.23;;;17.93;;
41221;SDS011;26952;42.884;23.918;2023-03-21T15:12:32;15.75;;;14.57;;
41221;SDS011;26952;42.884;23.918;2023-03-21T15:14:58;20.33;;;18.63;;
41221;SDS011;26952;42.884;23.918;2023-03-21T15:17:25;19.13;;;17.63;;
41221;SDS011;26952;42.884;23.918;2023-03-21T15:19:52;18.73;;;17.35;;
41221;SDS011;26952;42.884;23.918;2023-03-21T15:24:59;19.63;;;18.02;;
41221;SDS011;26952;42.884;23.918;2023-03-21T15:27:27;21.42;;;20.05;;
41221;SDS011;26952;42.884;23.918;2023-03-21T15:29:57;21.08;;;19.60;;
41221;SDS011;26952;42.884;23.918;2023-03-21T15:32:23;21.55;;;19.95;;
41221;SDS011;26952;42.884;23.918;2023-03-21T15:34:55;19.98;;;18.38;;
41221;SDS011;26952;42.884;23.918;2023-03-21T15:37:32;23.58;;;21.77;;
41221;SDS011;26952;42.884;23.918;2023-03-21T15:42:46;20.45;;;18.55;;
41221;SDS011;26952;42.884;23.918;2023-03-21T15:50:21;22.45;;;20.25;;
41221;SDS011;26952;42.884;23.918;2023-03-21T15:52:49;24.20;;;22.20;;
41221;SDS011;26952;42.884;23.918;2023-03-21T15:55:20;21.95;;;20.25;;
41221;SDS011;26952;42.884;23.918;2023-03-21T15:57:52;23.50;;;21.80;;
41221;SDS011;26952;42.884;23.918;2023-03-21T16:02:56;22.13;;;20.42;;
41221;SDS011;26952;42.884;23.918;2023-03-21T16:05:27;21.45;;;19.98;;
41221;SDS011;26952;42.884;23.918;2023-03-21T16:10:44;23.17;;;21.38;;
41221;SDS011;26952;42.884;23.918;2023-03-21T16:13:10;22.70;;;21.20;;
41221;SDS011;26952;42.884;23.918;2023-03-21T16:15:37;23.60;;;21.95;;
41221;SDS011;26952;42.884;23.918;2023-03-21T16:18:04;21.23;;;19.70;;
41221;SDS011;26952;42.884;23.918;2023-03-21T16:20:31;19.25;;;17.85;;
41221;SDS011;26952;42.884;23.918;2023-03-21T16:23:00;22.42;;;20.67;;
41221;SDS011;26952;42.884;23.918;2023-03-21T16:25:27;23.80;;;21.67;;
41221;SDS011;26952;42.884;23.918;2023-03-21T16:27:54;28.45;;;26.25;;
41221;SDS011;26952;42.884;23.918;2023-03-21T16:30:20;32.28;;;29.27;;
41221;SDS011;26952;42.884;23.918;2023-03-21T16:32:46;32.08;;;29.20;;
41221;SDS011;26952;42.884;23.918;2023-03-21T16:35:13;33.28;;;30.42;;
41221;SDS011;26952;42.884;23.918;2023-03-21T16:37:40;39.70;;;36.22;;
41221;SDS011;26952;42.884;23.918;2023-03-21T16:40:15;48.90;;;45.60;;
41221;SDS011;26952;42.884;23.918;2023-03-21T16:42:40;46.83;;;43.17;;
41221;SDS011;26952;42.884;23.918;2023-03-21T16:45:06;55.35;;;51.40;;
41221;SDS011;26952;42.884;23.918;2023-03-21T16:47:32;46.35;;;43.17;;